Time;durP1;ratioP1;P1;durP2;ratioP2;P2;SDS_P1;SDS_P2;PMS_P1;PMS_P2;Temp;Humidity;BMP_temperature;BMP_pressure;BME280_temperature;BME280_humidity;BME280_pressure;Samples;Min_cycle;Max_cycle;Signal;HPM_P1;HPM_P2
2024/01/07 00:04:00;;;;;;;21.53;16.80;;;4.70;99.90;;;5.41;100.00;97273.75;10499230;28;20222;-66
2024/01/07 00:09:03;;;;;;;20.30;16.90;;;4.70;99.90;;;5.47;100.00;97274.16;10496293;28;20310;-66
2024/01/07 00:14:07;;;;;;;18.57;16.27;;;4.70;99.90;;;5.49;100.00;97282.72;10502178;28;20247;-66
2024/01/07 00:19:11;;;;;;;20.80;17.33;;;4.70;99.90;;;5.48;100.00;97285.16;10499659;28;20224;-66
2024/01/07 00:24:14;;;;;;;24.33;19.37;;;4.70;99.90;;;5.43;100.00;97288.25;10504461;28;20705;-66
2024/01/07 00:29:18;;;;;;;25.40;21.53;;;4.70;99.90;;;5.45;100.00;97295.09;10496636;28;20232;-66
2024/01/07 00:34:22;;;;;;;35.20;24.53;;;4.70;99.90;;;5.43;100.00;97288.25;10502571;28;20254;-66
2024/01/07 00:39:25;;;;;;;27.97;21.83;;;4.70;99.90;;;5.41;100.00;97289.81;10502995;28;20228;-66
2024/01/07 00:44:29;;;;;;;27.07;22.43;;;4.70;99.90;;;5.42;100.00;97286.50;10497944;28;20297;-66
2024/01/07 00:49:33;;;;;;;27.23;23.93;;;4.70;99.90;;;5.45;100.00;97284.97;10497565;28;20615;-66
2024/01/07 00:54:36;;;;;;;24.10;20.87;;;4.70;99.90;;;5.37;100.00;97285.31;10490555;28;20226;-66
2024/01/07 00:59:40;;;;;;;24.90;21.10;;;4.60;99.90;;;5.41;100.00;97284.75;10418572;28;20237;-66
2024/01/07 01:04:43;;;;;;;23.80;20.67;;;4.60;99.90;;;5.37;100.00;97295.44;10431415;28;20236;-66
2024/01/07 01:09:47;;;;;;;21.30;19.00;;;4.70;99.90;;;5.40;100.00;97297.31;10496446;28;20310;-66
2024/01/07 01:14:52;;;;;;;21.30;19.03;;;4.70;99.90;;;5.41;100.00;97305.03;10484526;28;20225;-65
2024/01/07 01:19:55;;;;;;;17.83;15.93;;;4.60;99.90;;;5.38;100.00;97307.34;10418695;28;20237;-66
2024/01/07 01:24:59;;;;;;;18.83;16.03;;;4.60;99.90;;;5.34;100.00;97305.38;10415871;28;20649;-66
2024/01/07 01:30:05;;;;;;;16.97;15.27;;;4.60;99.90;;;5.38;100.00;97309.88;10414827;28;20234;-67
2024/01/07 01:35:09;;;;;;;17.43;15.27;;;4.60;99.90;;;5.22;100.00;97312.13;10415797;28;20225;-66
2024/01/07 01:40:13;;;;;;;17.03;14.93;;;4.50;99.90;;;5.22;100.00;97306.19;10417199;28;20229;-66
2024/01/07 01:45:18;;;;;;;16.80;15.10;;;4.50;99.90;;;5.13;100.00;97306.44;10413696;28;20228;-66
2024/01/07 01:50:23;;;;;;;15.70;14.10;;;4.50;99.90;;;5.15;100.00;97300.72;10416125;28;20747;-66
2024/01/07 01:55:27;;;;;;;27.70;17.30;;;4.50;99.90;;;5.08;100.00;97305.25;10420357;28;20340;-66
2024/01/07 02:00:31;;;;;;;20.17;16.80;;;4.40;99.90;;;5.14;100.00;97303.13;10413130;28;20292;-66
2024/01/07 02:05:34;;;;;;;17.77;15.73;;;4.50;99.90;;;5.19;100.00;97306.88;10413924;28;20260;-67
2024/01/07 02:10:37;;;;;;;15.67;13.80;;;4.40;99.90;;;5.17;100.00;97304.22;10418457;28;20228;-68
2024/01/07 02:15:45;;;;;;;15.67;13.67;;;4.40;99.90;;;5.15;100.00;97303.25;10413384;28;20245;-67
2024/01/07 02:20:48;;;;;;;14.87;13.37;;;4.40;99.90;;;5.11;100.00;97306.34;10411580;28;20249;-66
2024/01/07 02:25:53;;;;;;;14.60;12.77;;;4.40;99.90;;;5.01;100.00;97310.66;10416942;28;20236;-65
2024/01/07 02:30:56;;;;;;;15.20;13.60;;;4.30;99.90;;;5.03;100.00;97304.03;10474056;28;20614;-66
2024/01/07 02:35:59;;;;;;;14.77;13.23;;;4.30;99.90;;;5.01;100.00;97305.59;10409993;28;20614;-65
2024/01/07 02:41:05;;;;;;;15.77;13.97;;;4.30;99.90;;;4.95;100.00;97304.41;10457921;28;20233;-66
2024/01/07 02:46:08;;;;;;;14.53;13.03;;;4.30;99.90;;;4.89;100.00;97311.59;10409715;28;20218;-67
2024/01/07 02:51:12;;;;;;;14.20;12.70;;;4.20;99.90;;;4.94;100.00;97305.16;10410207;28;20320;-65
2024/01/07 02:56:16;;;;;;;14.87;13.07;;;4.20;99.90;;;4.94;100.00;97305.16;10421286;28;20814;-66
2024/01/07 03:01:23;;;;;;;15.80;14.20;;;4.20;99.90;;;4.92;100.00;97314.34;10418341;28;20225;-66
2024/01/07 03:06:28;;;;;;;20.30;15.83;;;4.20;99.90;;;4.97;100.00;97307.91;10414441;28;20966;-66
2024/01/07 03:11:32;;;;;;;16.33;14.57;;;4.20;99.90;;;4.90;100.00;97318.41;10416742;28;20233;-66
2024/01/07 03:16:35;;;;;;;18.77;16.63;;;4.20;99.90;;;4.90;100.00;97328.53;10413128;28;20224;-66
2024/01/07 03:21:39;;;;;;;16.50;14.37;;;4.30;99.90;;;4.88;100.00;97325.00;10476349;28;20235;-65
2024/01/07 03:26:43;;;;;;;18.77;16.77;;;4.20;99.90;;;4.92;100.00;97332.06;10501797;28;20225;-66
2024/01/07 03:31:46;;;;;;;23.67;17.27;;;4.20;99.90;;;4.99;100.00;97330.81;10497469;28;20622;-66
2024/01/07 03:36:49;;;;;;;18.87;16.00;;;4.30;99.90;;;4.96;100.00;97334.00;10500402;28;20748;-66
2024/01/07 03:41:57;;;;;;;18.83;16.50;;;4.30;99.90;;;4.93;100.00;97331.28;10469384;28;20229;-66
2024/01/07 03:47:00;;;;;;;21.10;16.97;;;4.30;99.90;;;4.95;100.00;97334.81;10417640;28;20226;-66
2024/01/07 03:52:03;;;;;;;18.90;16.50;;;4.30;99.90;;;5.01;100.00;97333.44;10408009;28;20225;-67
2024/01/07 03:57:08;;;;;;;18.03;15.87;;;4.30;99.90;;;4.97;100.00;97335.75;10409971;28;20225;-66
2024/01/07 04:02:11;;;;;;;20.30;16.73;;;4.30;99.90;;;5.00;100.00;97336.75;10443251;28;20719;-67
2024/01/07 04:07:14;;;;;;;19.63;16.90;;;4.40;99.90;;;4.96;100.00;97340.75;10489375;28;20221;-66
2024/01/07 04:12:19;;;;;;;26.87;20.33;;;4.30;99.90;;;4.92;100.00;97337.13;10490916;28;20940;-66
2024/01/07 04:17:22;;;;;;;20.70;17.97;;;4.30;99.90;;;4.89;100.00;97349.56;10435009;28;21568;-66
2024/01/07 04:22:25;;;;;;;20.67;16.90;;;4.30;99.90;;;4.77;100.00;97348.69;10402995;28;20236;-66
2024/01/07 04:27:30;;;;;;;20.80;17.73;;;4.20;99.90;;;4.73;100.00;97354.31;10404688;28;20222;-66
2024/01/07 04:32:33;;;;;;;17.37;15.23;;;4.20;99.90;;;4.83;100.00;97356.69;10438215;28;20286;-66
2024/01/07 04:37:37;;;;;;;19.50;17.23;;;4.30;99.90;;;4.84;100.00;97355.06;10410931;28;20319;-66
2024/01/07 04:42:42;;;;;;;22.50;17.80;;;4.30;99.90;;;4.84;100.00;97353.41;10448640;28;20228;-66
2024/01/07 04:47:45;;;;;;;19.03;16.33;;;4.30;99.90;;;4.85;100.00;97365.28;10458630;28;20764;-66
2024/01/07 04:52:48;;;;;;;20.97;17.20;;;4.30;99.90;;;4.83;100.00;97376.09;10402113;28;20998;-66
2024/01/07 04:57:53;;;;;;;19.27;16.63;;;4.30;99.90;;;4.82;100.00;97372.66;10405653;28;20252;-66
2024/01/07 05:02:56;;;;;;;19.13;17.03;;;4.30;99.90;;;4.83;100.00;97376.09;10408822;28;20934;-66
2024/01/07 05:08:00;;;;;;;20.40;17.20;;;4.30;99.90;;;4.86;100.00;97377.16;10441658;28;20228;-66
2024/01/07 05:13:06;;;;;;;20.97;17.70;;;4.30;99.90;;;4.83;100.00;97386.22;10460986;28;20240;-64
2024/01/07 05:18:10;;;;;;;16.97;14.97;;;4.30;99.90;;;4.86;100.00;97392.34;10417679;28;20766;-67
2024/01/07 05:23:13;;;;;;;20.30;16.13;;;4.30;99.90;;;4.86;100.00;97396.56;10440527;28;20232;-66
2024/01/07 05:28:19;;;;;;;17.43;15.60;;;4.30;99.90;;;4.81;100.00;97398.78;10502573;28;20331;-65
2024/01/07 05:33:23;;;;;;;22.37;17.60;;;4.30;99.90;;;4.86;100.00;97405.03;10438796;28;20291;-64
2024/01/07 05:38:26;;;;;;;19.40;16.20;;;4.30;99.90;;;4.82;100.00;97413.19;10407220;28;20986;-67
2024/01/07 05:43:36;;;;;;;19.20;16.30;;;4.30;99.90;;;4.75;100.00;97416.06;10466195;28;20235;-65
2024/01/07 05:48:44;;;;;;;34.27;22.63;;;4.20;99.90;;;4.83;100.00;97417.47;10489799;28;20836;-65
2024/01/07 05:53:48;;;;;;;20.47;18.17;;;4.30;99.90;;;4.70;100.00;97419.91;10491574;28;20228;-66
2024/01/07 05:58:52;;;;;;;20.07;17.13;;;4.20;99.90;;;4.69;100.00;97425.72;10486837;28;20243;-65
2024/01/07 06:03:55;;;;;;;20.33;16.70;;;4.30;99.90;;;4.63;100.00;97415.16;10493814;28;20221;-65
2024/01/07 06:08:58;;;;;;;23.50;17.37;;;4.20;99.90;;;4.69;100.00;97424.09;10490256;28;20228;-65
2024/01/07 06:14:03;;;;;;;19.23;17.13;;;4.20;99.90;;;4.66;100.00;97418.78;10425695;28;20675;-64
2024/01/07 06:19:06;;;;;;;18.83;16.87;;;4.20;99.90;;;4.67;100.00;97429.81;10472518;28;20641;-63
2024/01/07 06:24:10;;;;;;;23.10;18.60;;;4.20;99.90;;;4.64;100.00;97439.72;10492111;28;20278;-65
2024/01/07 06:29:14;;;;;;;18.50;16.50;;;4.20;99.90;;;4.63;100.00;97437.94;10497568;28;20228;-65
2024/01/07 06:34:17;;;;;;;19.63;17.63;;;4.10;99.90;;;4.53;100.00;97441.44;10504756;28;20234;-64
2024/01/07 06:39:21;;;;;;;21.00;18.50;;;4.10;99.90;;;4.34;100.00;97453.50;10507770;28;20224;-64
2024/01/07 06:44:25;;;;;;;17.77;15.87;;;4.00;99.90;;;4.42;100.00;97448.25;10502414;28;20224;-64
2024/01/07 06:49:28;;;;;;;19.40;17.30;;;4.00;99.90;;;4.24;100.00;97457.91;10500577;28;20385;-64
2024/01/07 06:54:31;;;;;;;16.80;14.87;;;3.90;99.90;;;4.31;100.00;97468.47;10501719;28;20236;-64
2024/01/07 06:59:36;;;;;;;16.30;14.43;;;3.90;99.90;;;4.17;100.00;97472.47;10473685;28;21364;-64
2024/01/07 07:04:39;;;;;;;15.77;14.03;;;3.90;99.90;;;4.17;100.00;97475.00;10473294;28;20220;-64
2024/01/07 07:09:42;;;;;;;16.03;14.27;;;3.90;99.90;;;4.04;100.00;97495.97;10502756;28;20896;-64
2024/01/07 07:14:47;;;;;;;15.03;13.43;;;3.70;99.90;;;4.14;100.00;97506.00;10500956;28;20232;-64
2024/01/07 07:19:50;;;;;;;16.00;14.27;;;3.80;99.90;;;3.99;100.00;97507.38;10505721;28;20224;-64
2024/01/07 07:24:54;;;;;;;16.83;14.60;;;3.70;99.90;;;4.12;100.00;97509.19;10445388;28;20220;-64
2024/01/07 07:30:00;;;;;;;15.37;13.87;;;3.70;99.90;;;3.97;100.00;97519.00;10439256;28;20233;-64
2024/01/07 07:35:04;;;;;;;15.40;13.77;;;3.70;99.90;;;4.11;100.00;97527.66;10502932;28;20327;-64
2024/01/07 07:40:08;;;;;;;17.63;14.73;;;3.60;99.90;;;3.90;100.00;97527.78;10498394;28;20235;-65
2024/01/07 07:45:13;;;;;;;14.90;13.03;;;3.50;99.90;;;3.73;100.00;97541.66;10496584;28;20228;-64
2024/01/07 07:50:16;;;;;;;17.10;14.43;;;3.50;99.90;;;3.73;100.00;97535.72;10495428;28;20803;-64
2024/01/07 07:55:20;;;;;;;16.17;13.13;;;3.40;99.90;;;3.71;100.00;97543.16;10499882;28;20230;-64
2024/01/07 08:00:24;;;;;;;18.30;14.47;;;3.40;99.90;;;3.82;100.00;97539.81;10495628;28;20309;-65
2024/01/07 08:05:28;;;;;;;15.73;14.07;;;3.50;99.90;;;3.77;100.00;97550.34;10475286;28;20233;-64
2024/01/07 08:10:31;;;;;;;16.37;14.67;;;3.40;99.90;;;3.80;100.00;97548.94;10414819;28;20230;-65
2024/01/07 08:15:37;;;;;;;16.10;14.27;;;3.50;99.90;;;3.81;100.00;97562.47;10419973;28;20254;-65
2024/01/07 08:20:41;;;;;;;17.53;15.10;;;3.40;99.90;;;3.67;100.00;97558.84;10488369;28;20246;-65
2024/01/07 08:25:44;;;;;;;19.60;15.23;;;3.40;99.90;;;3.69;100.00;97564.00;10492327;28;20368;-65
2024/01/07 08:30:51;;;;;;;17.43;14.33;;;3.30;99.90;;;3.64;100.00;97568.72;10505799;28;20230;-65
2024/01/07 08:35:54;;;;;;;16.23;14.53;;;3.30;99.90;;;3.67;100.00;97573.16;10497562;28;20634;-65
2024/01/07 08:40:58;;;;;;;19.43;16.33;;;3.30;99.90;;;3.67;100.00;97580.72;10495937;28;20221;-67
2024/01/07 08:46:05;;;;;;;16.23;13.20;;;3.40;99.90;;;3.64;100.00;97585.53;10491421;28;20275;-66
2024/01/07 08:51:08;;;;;;;17.67;15.57;;;3.30;99.90;;;3.71;100.00;97592.81;10485798;28;21039;-65
2024/01/07 08:56:13;;;;;;;16.30;13.83;;;3.40;99.90;;;3.68;100.00;97597.66;10427234;28;20724;-66
2024/01/07 09:01:17;;;;;;;13.93;12.07;;;3.40;99.90;;;3.58;98.45;97612.09;10417020;28;20233;-66
2024/01/07 09:06:20;;;;;;;11.37;10.10;;;3.30;99.90;;;3.55;97.05;97621.94;10414243;28;20393;-66
2024/01/07 09:11:24;;;;;;;11.83;10.37;;;3.20;99.90;;;3.43;96.66;97633.56;10419991;28;20817;-67
2024/01/07 09:16:28;;;;;;;12.47;10.80;;;3.10;99.90;;;3.35;96.31;97634.63;10418599;28;20240;-66
2024/01/07 09:21:31;;;;;;;12.07;10.10;;;3.10;99.90;;;3.26;96.24;97632.25;10463576;28;20233;-64
2024/01/07 09:26:34;;;;;;;11.77;9.93;;;3.00;99.90;;;3.25;95.33;97629.56;10461983;28;20333;-65
2024/01/07 09:31:39;;;;;;;13.07;10.60;;;3.00;99.90;;;3.17;95.36;97636.50;10441464;28;20230;-65
2024/01/07 09:36:42;;;;;;;11.47;10.23;;;3.00;99.90;;;3.19;96.16;97646.75;10486546;28;20230;-65
2024/01/07 09:41:45;;;;;;;11.40;10.20;;;2.90;99.90;;;3.17;94.72;97647.50;10490247;28;20228;-66
2024/01/07 09:46:51;;;;;;;12.00;10.70;;;2.90;99.90;;;3.32;94.92;97646.97;10484102;28;20234;-65
2024/01/07 09:52:01;;;;;;;10.67;9.57;;;3.00;99.90;;;3.32;94.03;97645.34;10486660;28;20259;-65
2024/01/07 09:57:07;;;;;;;11.30;9.93;;;3.00;99.90;;;3.28;94.32;97652.56;10469627;28;20263;-65
2024/01/07 10:02:11;;;;;;;11.83;9.80;;;2.90;99.90;;;3.23;94.64;97657.22;10438502;28;20231;-65
2024/01/07 10:07:15;;;;;;;10.97;9.87;;;2.90;99.90;;;3.35;92.97;97652.31;10450275;28;20653;-66
2024/01/07 10:12:18;;;;;;;11.17;10.07;;;2.90;99.90;;;3.20;92.24;97661.13;10402746;28;20242;-66
2024/01/07 10:17:27;;;;;;;10.90;9.80;;;2.80;99.90;;;3.12;92.26;97648.78;10401455;28;20227;-65
2024/01/07 10:22:31;;;;;;;10.77;9.73;;;2.80;99.90;;;2.87;93.25;97655.09;10400363;28;20597;-66
2024/01/07 10:27:35;;;;;;;10.50;9.40;;;2.70;99.90;;;3.12;94.58;97663.94;10406727;28;20218;-67
2024/01/07 10:32:43;;;;;;;9.80;8.80;;;2.80;99.90;;;2.96;92.18;97663.41;10410993;28;20230;-67
2024/01/07 10:37:46;;;;;;;12.87;11.40;;;2.70;99.90;;;3.12;91.82;97674.03;10479056;28;20317;-67
2024/01/07 10:42:50;;;;;;;11.33;9.47;;;2.80;99.90;;;2.94;92.47;97669.97;10484603;28;20239;-67
2024/01/07 10:47:56;;;;;;;11.07;9.90;;;2.80;99.90;;;3.04;93.21;97680.09;10488283;28;20232;-67
2024/01/07 10:53:07;;;;;;;11.27;10.17;;;2.80;99.90;;;3.07;91.20;97675.28;10443454;28;20234;-67
2024/01/07 10:58:11;;;;;;;10.83;9.80;;;2.80;99.90;;;3.13;91.52;97675.78;10407141;28;20732;-66
2024/01/07 11:03:23;;;;;;;13.00;10.43;;;2.80;99.90;;;3.14;92.35;97677.53;10418393;28;20230;-65
2024/01/07 11:08:34;;;;;;;11.10;9.77;;;2.80;99.90;;;3.08;91.33;97674.53;10424824;28;20236;-66
2024/01/07 11:13:39;;;;;;;10.20;9.20;;;2.80;99.90;;;2.86;91.68;97671.88;10493213;28;20231;-65
2024/01/07 11:18:52;;;;;;;10.20;9.20;;;2.60;99.90;;;2.78;90.43;97675.41;10497833;28;20303;-64
2024/01/07 11:23:56;;;;;;;9.97;8.93;;;2.60;99.90;;;3.01;90.08;97673.91;10503516;28;20233;-64
2024/01/07 11:29:01;;;;;;;11.50;9.57;;;2.70;99.90;;;2.91;89.75;97677.28;10479084;28;20234;-66
2024/01/07 11:34:06;;;;;;;10.80;9.80;;;2.60;99.90;;;2.78;89.62;97677.94;10475884;28;20314;-67
2024/01/07 11:39:10;;;;;;;11.27;10.17;;;2.60;99.90;;;2.84;87.74;97685.13;10420792;28;20313;-65
2024/01/07 11:44:14;;;;;;;11.80;10.07;;;2.60;99.90;;;2.77;89.08;97680.31;10419880;28;20230;-64
2024/01/07 11:49:19;;;;;;;11.67;10.57;;;2.50;99.90;;;2.82;89.55;97684.09;10424748;28;20653;-65
2024/01/07 11:54:22;;;;;;;11.20;10.10;;;2.50;99.90;;;2.86;88.09;97687.03;10486562;28;20235;-65
2024/01/07 11:59:26;;;;;;;12.37;11.10;;;2.40;99.90;;;2.83;87.65;97685.84;10501261;28;20243;-65
2024/01/07 12:04:30;;;;;;;11.73;10.57;;;2.50;99.90;;;2.74;88.79;97688.50;10487545;28;20231;-66
2024/01/07 12:09:34;;;;;;;11.33;10.20;;;2.40;99.90;;;2.58;87.61;97695.56;10441216;28;20232;-65
2024/01/07 12:14:37;;;;;;;13.87;12.37;;;2.30;99.90;;;2.48;88.03;97698.91;10487678;28;20228;-64
2024/01/07 12:19:43;;;;;;;12.10;10.90;;;2.20;99.90;;;2.63;87.80;97709.41;10421730;28;20291;-66
2024/01/07 12:24:46;;;;;;;11.60;10.53;;;2.30;99.90;;;2.55;89.62;97710.41;10458318;28;20728;-68
2024/01/07 12:29:56;;;;;;;14.67;11.40;;;2.30;99.90;;;2.29;88.80;97709.09;10441358;28;20277;-65
2024/01/07 12:35:02;;;;;;;14.30;11.80;;;2.10;99.90;;;2.25;88.79;97720.53;10478297;28;20325;-65
2024/01/07 12:40:09;;;;;;;11.67;10.57;;;2.00;99.90;;;2.21;89.20;97710.94;10451327;28;21062;-66
2024/01/07 12:45:14;;;;;;;14.37;12.97;;;2.00;99.90;;;2.37;88.87;97714.75;10421824;28;20228;-65
2024/01/07 12:50:21;;;;;;;13.20;11.90;;;2.00;99.90;;;2.42;89.36;97723.63;10420742;28;20314;-65
2024/01/07 12:55:26;;;;;;;16.40;13.50;;;2.00;99.90;;;2.43;88.30;97722.84;10419744;28;20228;-64
2024/01/07 13:00:30;;;;;;;13.40;11.90;;;2.10;99.90;;;2.42;88.70;97729.53;10415484;28;20704;-63
2024/01/07 13:05:34;;;;;;;14.10;12.53;;;2.10;99.90;;;2.15;89.48;97733.09;10417739;28;20233;-64
2024/01/07 13:10:38;;;;;;;16.27;14.20;;;1.90;99.90;;;1.89;91.68;97742.50;10427199;28;20319;-64
2024/01/07 13:15:42;;;;;;;15.27;13.50;;;1.60;99.90;;;1.91;91.23;97741.91;10492765;28;20263;-66
2024/01/07 13:20:47;;;;;;;16.10;13.63;;;1.60;99.90;;;1.50;92.88;97753.34;10480807;28;20229;-65
2024/01/07 13:25:50;;;;;;;17.03;14.33;;;1.30;99.90;;;1.69;92.43;97764.34;10420188;28;20880;-64
2024/01/07 13:30:54;;;;;;;17.43;14.97;;;1.40;99.90;;;1.73;91.59;97756.28;10450191;28;20655;-65
2024/01/07 13:35:58;;;;;;;24.40;18.10;;;1.50;99.90;;;1.60;92.85;97773.56;10412427;28;20237;-66
2024/01/07 13:41:02;;;;;;;17.87;14.47;;;1.40;99.90;;;1.45;93.61;97769.66;10434602;28;20317;-66
2024/01/07 13:46:05;;;;;;;19.07;15.87;;;1.30;99.90;;;1.68;93.45;97784.34;10490174;28;20606;-65
2024/01/07 13:51:10;;;;;;;16.90;14.13;;;1.40;99.90;;;1.74;92.76;97788.28;10474992;28;20240;-66
2024/01/07 13:56:14;;;;;;;18.93;15.23;;;1.40;99.90;;;1.62;91.70;97786.31;10413466;28;20585;-65
2024/01/07 14:01:17;;;;;;;18.40;15.97;;;1.30;99.90;;;1.67;91.80;97797.69;10413977;28;20239;-66
2024/01/07 14:06:22;;;;;;;21.07;16.47;;;1.40;99.90;;;1.49;91.26;97804.47;10419435;28;20316;-65
2024/01/07 14:11:27;;;;;;;16.30;14.63;;;1.30;99.90;;;1.68;91.52;97805.38;10421272;28;20232;-66
2024/01/07 14:16:31;;;;;;;16.90;14.47;;;1.40;99.90;;;1.74;91.00;97815.97;10407944;28;20237;-65
2024/01/07 14:21:36;;;;;;;15.40;13.80;;;1.30;99.90;;;1.61;91.27;97815.66;10410946;28;20700;-65
2024/01/07 14:26:39;;;;;;;16.83;14.27;;;1.30;99.90;;;1.49;92.54;97817.94;10481365;28;20233;-66
2024/01/07 14:31:42;;;;;;;20.83;16.87;;;1.20;99.90;;;1.61;93.43;97819.81;10415514;28;20243;-67
2024/01/07 14:36:47;;;;;;;16.93;15.13;;;1.30;99.90;;;1.77;91.88;97823.84;10460042;28;20246;-66
2024/01/07 14:41:50;;;;;;;15.77;14.03;;;1.40;99.90;;;1.72;90.52;97832.63;10465383;28;20229;-66
2024/01/07 14:46:53;;;;;;;19.43;15.30;;;1.40;99.90;;;1.51;91.16;97829.03;10453407;28;20231;-66
2024/01/07 14:51:57;;;;;;;17.40;14.43;;;1.30;99.90;;;1.41;90.14;97830.59;10497397;28;20232;-65
2024/01/07 14:57:01;;;;;;;15.50;13.90;;;1.20;99.90;;;1.33;91.69;97843.34;10472279;28;20221;-65
2024/01/07 15:02:04;;;;;;;15.97;13.60;;;1.00;99.90;;;1.33;92.03;97847.50;10481068;28;20322;-66
2024/01/07 15:07:10;;;;;;;14.40;12.90;;;1.10;99.90;;;1.43;92.25;97847.63;10417670;28;20676;-66
2024/01/07 15:12:14;;;;;;;16.27;12.93;;;1.10;99.90;;;1.16;91.99;97858.53;10455044;28;20293;-67
2024/01/07 15:17:18;;;;;;;13.33;11.93;;;0.90;99.90;;;1.54;90.57;97864.56;10443328;28;20316;-65
2024/01/07 15:22:23;;;;;;;14.80;12.33;;;1.20;99.90;;;1.12;92.64;97869.94;10473049;28;20261;-65
2024/01/07 15:27:26;;;;;;;13.60;12.20;;;0.90;99.90;;;1.30;93.97;97878.31;10496600;28;20225;-66
2024/01/07 15:32:29;;;;;;;12.70;11.40;;;1.00;99.90;;;1.35;91.43;97882.16;10480360;28;20230;-66
2024/01/07 15:37:34;;;;;;;13.50;12.10;;;0.90;99.90;;;0.90;93.38;97898.88;10417640;28;20310;-66
2024/01/07 15:42:39;;;;;;;12.93;11.63;;;0.70;99.90;;;1.03;93.40;97901.81;10425550;28;20319;-66
2024/01/07 15:47:42;;;;;;;13.60;12.03;;;0.60;99.90;;;0.93;93.95;97913.38;10481798;28;20306;-66
2024/01/07 15:52:50;;;;;;;12.63;11.33;;;0.60;99.90;;;0.88;95.00;97920.47;10424836;28;20226;-66
2024/01/07 15:57:53;;;;;;;12.77;10.70;;;0.60;99.90;;;0.86;94.49;97927.00;10449198;28;20225;-66
2024/01/07 16:02:58;;;;;;;11.70;10.50;;;0.60;99.90;;;0.84;95.48;97929.38;10490533;28;20232;-65
2024/01/07 16:08:03;;;;;;;12.87;10.73;;;0.50;99.90;;;0.97;94.20;97935.56;10422642;28;20221;-68
2024/01/07 16:13:06;;;;;;;12.03;10.47;;;0.60;99.90;;;0.87;95.23;97939.72;10484589;28;20224;-66
2024/01/07 16:18:09;;;;;;;10.77;9.67;;;0.60;99.90;;;0.84;94.30;97948.63;10453604;28;20675;-66
2024/01/07 16:23:14;;;;;;;10.70;9.60;;;0.40;99.90;;;0.94;92.65;97957.91;10485970;28;20232;-66
2024/01/07 16:28:18;;;;;;;12.83;10.77;;;0.50;99.90;;;0.80;91.85;97972.59;10485852;28;20318;-67
2024/01/07 16:33:21;;;;;;;10.77;9.77;;;0.50;99.90;;;0.52;93.00;97976.59;10415667;28;20226;-66
2024/01/07 16:38:26;;;;;;;11.50;10.03;;;0.30;99.90;;;0.67;92.73;97983.09;10418326;28;20701;-66
2024/01/07 16:43:31;;;;;;;10.93;9.83;;;0.40;99.90;;;0.59;92.73;97983.97;10487492;28;20224;-65
2024/01/07 16:48:34;;;;;;;11.50;10.30;;;0.30;99.90;;;0.65;93.81;97993.72;10492780;28;20259;-66
2024/01/07 16:53:42;;;;;;;11.93;10.73;;;0.30;99.90;;;0.54;94.14;97996.81;10480550;28;20994;-66
2024/01/07 16:58:45;;;;;;;10.30;9.40;;;0.30;99.90;;;0.53;93.75;98007.63;10492928;28;20228;-65
2024/01/07 17:03:48;;;;;;;12.10;10.33;;;0.20;99.90;;;0.38;93.87;98005.41;10491479;28;20770;-67
2024/01/07 17:08:53;;;;;;;9.97;9.07;;;0.10;99.90;;;0.52;92.10;98005.88;10414818;28;20939;-66
2024/01/07 17:13:56;;;;;;;11.23;10.13;;;0.20;99.90;;;0.40;92.95;98008.97;10475154;28;20235;-66
2024/01/07 17:18:59;;;;;;;10.83;9.83;;;0.10;99.90;;;0.26;94.37;98023.41;10455587;28;20231;-65
2024/01/07 17:24:05;;;;;;;11.17;9.60;;;0.00;99.90;;;0.29;95.28;98028.75;10470214;28;20236;-68
2024/01/07 17:29:08;;;;;;;10.90;9.90;;;0.00;99.90;;;0.47;96.40;98029.66;10437948;28;20237;-66
2024/01/07 17:34:11;;;;;;;11.33;10.23;;;0.10;99.90;;;0.40;94.17;98039.13;10407468;28;20899;-66
2024/01/07 17:39:16;;;;;;;9.83;8.93;;;0.10;99.90;;;0.34;92.34;98052.69;10405139;28;20229;-65
2024/01/07 17:44:19;;;;;;;11.30;9.30;;;0.00;99.90;;;0.21;91.21;98050.59;10439311;28;20323;-65
2024/01/07 17:49:22;;;;;;;9.53;8.73;;;0.00;99.90;;;0.22;90.54;98062.44;10486330;28;20739;-64
2024/01/07 17:54:27;;;;;;;10.50;9.57;;;-0.10;99.90;;;0.15;88.59;98060.06;10448786;28;20237;-65
2024/01/07 17:59:33;;;;;;;11.43;10.23;;;-0.10;99.90;;;0.48;88.33;98057.47;10407314;28;20245;-66
2024/01/07 18:04:37;;;;;;;9.97;9.00;;;0.10;99.90;;;0.39;87.82;98064.09;10411352;28;20221;-66
2024/01/07 18:09:42;;;;;;;11.07;9.57;;;0.00;99.90;;;0.49;86.00;98063.38;10438463;28;20243;-65
2024/01/07 18:14:45;;;;;;;11.20;10.10;;;0.10;99.90;;;0.38;85.76;98074.91;10468668;28;20221;-66
2024/01/07 18:19:49;;;;;;;11.37;10.27;;;0.00;99.90;;;0.14;85.98;98068.31;10465555;28;20238;-65
2024/01/07 18:24:54;;;;;;;11.37;10.30;;;-0.20;99.90;;;0.16;85.13;98081.91;10406240;28;20235;-65
2024/01/07 18:29:59;;;;;;;11.23;10.13;;;-0.10;99.90;;;-0.08;86.08;98101.34;10431839;28;20286;-65
2024/01/07 18:35:02;;;;;;;11.60;10.43;;;-0.20;99.90;;;-0.13;86.95;98101.59;10446841;28;1092730;-67
2024/01/07 18:40:09;;;;;;;11.60;10.47;;;-0.30;99.90;;;-0.26;86.03;98102.88;10440746;28;20869;-65
2024/01/07 18:45:12;;;;;;;11.07;9.97;;;-0.30;99.90;;;-0.11;87.07;98101.03;10478972;28;20236;-66
2024/01/07 18:50:18;;;;;;;12.30;11.10;;;-0.30;99.90;;;-0.03;86.25;98114.34;10473535;28;20226;-66
2024/01/07 18:55:23;;;;;;;11.57;10.37;;;-0.20;99.90;;;-0.04;86.66;98123.50;10469868;28;20222;-65
2024/01/07 19:00:27;;;;;;;12.30;11.00;;;-0.20;99.90;;;-0.13;85.99;98131.75;10441426;28;20233;-66
2024/01/07 19:05:30;;;;;;;10.13;9.17;;;-0.40;99.90;;;-0.19;84.72;98136.16;10448039;28;20244;-66
2024/01/07 19:10:35;;;;;;;12.37;11.13;;;-0.40;99.90;;;-0.31;85.64;98139.19;10472413;28;20233;-65
2024/01/07 19:15:40;;;;;;;11.23;10.23;;;-0.50;99.90;;;-0.11;85.28;98145.34;10468432;28;20217;-66
2024/01/07 19:20:43;;;;;;;11.03;9.93;;;-0.50;99.90;;;-0.33;85.05;98144.78;10440137;28;20230;-66
2024/01/07 19:25:47;;;;;;;17.20;12.17;;;-0.60;99.90;;;-0.33;85.80;98147.28;10473322;28;20713;-66
2024/01/07 19:30:53;;;;;;;10.70;9.67;;;-0.60;99.90;;;-0.37;86.04;98155.22;10449340;28;20688;-65
2024/01/07 19:35:56;;;;;;;10.10;9.10;;;-0.70;99.90;;;-0.30;86.81;98158.53;10445324;28;20313;-66
2024/01/07 19:41:02;;;;;;;10.37;9.37;;;-0.60;99.90;;;-0.46;86.13;98166.09;10473119;28;20231;-65
2024/01/07 19:46:05;;;;;;;11.20;9.73;;;-0.70;99.90;;;-0.58;86.42;98164.81;10475254;28;20235;-66
2024/01/07 19:51:09;;;;;;;10.93;9.90;;;-0.80;99.90;;;-0.46;86.58;98171.13;10443107;28;20237;-66
2024/01/07 19:56:13;;;;;;;11.13;10.13;;;-0.70;99.90;;;-0.64;86.68;98178.34;10403939;28;20226;-65
2024/01/07 20:01:16;;;;;;;10.70;9.70;;;-0.80;99.90;;;-0.62;85.95;98187.81;10425986;28;20325;-65
2024/01/07 20:06:23;;;;;;;10.27;9.37;;;-0.90;99.90;;;-0.32;86.09;98194.25;10449484;28;20237;-65
2024/01/07 20:11:27;;;;;;;10.27;9.27;;;-0.70;99.90;;;-0.44;84.75;98192.97;10475850;28;20229;-65
2024/01/07 20:16:32;;;;;;;10.07;9.17;;;-0.80;99.90;;;-0.68;85.11;98203.13;10449560;28;20342;-65
2024/01/07 20:21:37;;;;;;;10.10;9.27;;;-0.80;99.90;;;-0.74;85.07;98209.13;10473512;28;20228;-64
2024/01/07 20:26:42;;;;;;;10.30;9.40;;;-1.00;99.90;;;-1.09;85.31;98210.38;10479405;28;20229;-65
2024/01/07 20:31:47;;;;;;;10.70;8.77;;;-1.20;99.90;;;-0.93;86.59;98211.28;10495276;28;20227;-65
2024/01/07 20:36:51;;;;;;;8.93;8.13;;;-1.20;99.90;;;-1.11;85.42;98215.25;10471546;28;20223;-64
2024/01/07 20:41:57;;;;;;;9.63;8.83;;;-1.30;99.90;;;-1.13;86.46;98220.09;10450274;28;20236;-65
2024/01/07 20:47:00;;;;;;;10.13;9.23;;;-1.40;99.90;;;-1.04;87.14;98227.69;10474377;28;21150;-66
2024/01/07 20:52:05;;;;;;;9.23;8.43;;;-1.40;99.90;;;-0.99;86.52;98226.56;10472866;28;20371;-65
2024/01/07 20:57:09;;;;;;;8.77;7.90;;;-1.30;99.90;;;-1.22;84.40;98229.13;10447177;28;20246;-65
2024/01/07 21:02:13;;;;;;;8.57;7.77;;;-1.30;99.90;;;-1.14;86.34;98237.50;10471566;28;20228;-66